Impacts TAF Board
For situational awareness. Not to be used for flight planning purposes.
IDs:

KMIA - Miami Intl, FL, US

Issued at 0305 UTC 10 Dec 2018
Updated at 0445 UTC 10 Dec 2018
Potential Impact None Slight Moderate High
Time<<11/05Z 11/06Z 11/07Z 11/08Z 11/09Z 11/10Z 11/11Z 11/12Z 11/13Z 11/14Z 11/15Z 11/16Z 11/17Z
Type PRVL
VIS >6
CIG --
Cover SCT
FltCat VFR
WX --
WDir 290
WSpd 7
WGst --
Raw TAF
KMIA 100305Z 1003/1106 26007KT P6SM SCT020 SCT090 BKN200
  FM101300 29010KT P6SM SCT020 BKN040
  FM102200 29007KT P6SM SCT040


METAR Board
Radar Display
Forecast Discussion
For situational awareness. Not to be used for flight planning purposes.